Aviation Digital Data Service (ADDS)

Output produced by METARs form (1200 UTC 19 January 2019)
found at http://www.aviationweather.gov/metar/data/
 
METAR text: ETNH 191120Z VRB02KT 7000 FEW150 BKN200 00/M03 Q1019 WHT
Conditions at: ETNH (HOHN (GER-AFB) , DE) observed 1120 UTC 19 January 2019
Temperature: 0.0°C (32°F)
Dewpoint: -3.0°C (27°F) [RH = 80%]
Pressure (altimeter): 30.09 inches Hg (1019.0 mb)
Winds: variable direction winds at 2 MPH (2 knots; 1.0 m/s)
Visibility: 4 miles ( 7 km)
Ceiling: 20000 feet AGL
Clouds: few clouds at 15000 feet AGL
broken clouds at 20000 feet AGL
Weather: no significant weather observed at this time

METAR text: ETNH 191020Z 14003KT 7000 BKN200 M01/M02 Q1019 WHT
Conditions at: ETNH (HOHN (GER-AFB) , DE) observed 1020 UTC 19 January 2019
Temperature: -1.0°C (30°F)
Dewpoint: -2.0°C (28°F) [RH = 93%]
Pressure (altimeter): 30.09 inches Hg (1019.0 mb)
Winds: from the SE (140 degrees) at 3 MPH (3 knots; 1.5 m/s)
Visibility: 4 miles ( 7 km)
Ceiling: 20000 feet AGL
Clouds: broken clouds at 20000 feet AGL
Weather: no significant weather observed at this time

METAR text: ETNH 190920Z VRB01KT 5000 BR FEW150 SCT220 M02/M03 Q1019 WHT
Conditions at: ETNH (HOHN (GER-AFB) , DE) observed 0920 UTC 19 January 2019
Temperature: -2.0°C (28°F)
Dewpoint: -3.0°C (27°F) [RH = 93%]
Pressure (altimeter): 30.09 inches Hg (1019.0 mb)
Winds: variable direction winds at 1 MPH (1 knots; 0.5 m/s)
Visibility: 3 miles ( 5 km)
Ceiling: at least 12,000 feet AGL
Clouds: few clouds at 15000 feet AGL
scattered clouds at 22000 feet AGL
Weather: BR  (mist)

METAR text: ETNH 190856Z VRB01KT 4000 BR FEW150 SCT250 M02/M03 Q1019 GRN
Conditions at: ETNH (HOHN (GER-AFB) , DE) observed 0856 UTC 19 January 2019
Temperature: -2.0°C (28°F)
Dewpoint: -3.0°C (27°F) [RH = 93%]
Pressure (altimeter): 30.09 inches Hg (1019.0 mb)
Winds: variable direction winds at 1 MPH (1 knots; 0.5 m/s)
Visibility: 2.49 miles (4.01 km)
Ceiling: at least 12,000 feet AGL
Clouds: few clouds at 15000 feet AGL
scattered clouds at 25000 feet AGL
Weather: BR  (mist)

METAR text: ETNH 190820Z 15003KT 3000 BR SCT250 M03/M04 Q1019 YLO
Conditions at: ETNH (HOHN (GER-AFB) , DE) observed 0820 UTC 19 January 2019
Temperature: -3.0°C (27°F)
Dewpoint: -4.0°C (25°F) [RH = 93%]
Pressure (altimeter): 30.09 inches Hg (1019.0 mb)
Winds: from the SSE (150 degrees) at 3 MPH (3 knots; 1.5 m/s)
Visibility: 1.86 miles (2.99 km)
Ceiling: at least 12,000 feet AGL
Clouds: scattered clouds at 25000 feet AGL
Weather: BR  (mist)

METAR text: ETNH 190720Z 15003KT 2400 BR SCT007 M02/M03 Q1019 YLO
Conditions at: ETNH (HOHN (GER-AFB) , DE) observed 0720 UTC 19 January 2019
Temperature: -2.0°C (28°F)
Dewpoint: -3.0°C (27°F) [RH = 93%]
Pressure (altimeter): 30.09 inches Hg (1019.0 mb)
Winds: from the SSE (150 degrees) at 3 MPH (3 knots; 1.5 m/s)
Visibility: 1.49 miles (2.40 km)
Ceiling: at least 12,000 feet AGL
Clouds: scattered clouds at 700 feet AGL
Weather: BR  (mist)

METAR text: ETNH 190620Z 18002KT 2500 BR OVC002 M00/M01 Q1018 AMB
Conditions at: ETNH (HOHN (GER-AFB) , DE) observed 0620 UTC 19 January 2019
Temperature: 0.0°C (32°F)
Dewpoint: -1.0°C (30°F) [RH = 93%]
Pressure (altimeter): 30.06 inches Hg (1018.0 mb)
Winds: from the S (180 degrees) at 2 MPH (2 knots; 1.0 m/s)
Visibility: 1.55 miles (2.49 km)
Ceiling: 200 feet AGL
Clouds: overcast cloud deck at 200 feet AGL
Weather: BR  (mist)

METAR text: ETNH 190609Z 20003KT 2000 BR OVC002 M00/M01 Q1018 AMB
Conditions at: ETNH (HOHN (GER-AFB) , DE) observed 0609 UTC 19 January 2019
Temperature: 0.0°C (32°F)
Dewpoint: -1.0°C (30°F) [RH = 93%]
Pressure (altimeter): 30.06 inches Hg (1018.0 mb)
Winds: from the SSW (200 degrees) at 3 MPH (3 knots; 1.5 m/s)
Visibility: 1.24 miles (2.00 km)
Ceiling: 200 feet AGL
Clouds: overcast cloud deck at 200 feet AGL
Weather: BR  (mist)

METAR text: ETNH 190601Z 21003KT 1600 BR OVC001 M00/M01 Q1018 RED
Conditions at: ETNH (HOHN (GER-AFB) , DE) observed 0601 UTC 19 January 2019
Temperature: 0.0°C (32°F)
Dewpoint: -1.0°C (30°F) [RH = 93%]
Pressure (altimeter): 30.06 inches Hg (1018.0 mb)
Winds: from the SSW (210 degrees) at 3 MPH (3 knots; 1.5 m/s)
Visibility: 0.99 miles (1.59 km)
Ceiling: 100 feet AGL
Clouds: overcast cloud deck at 100 feet AGL
Weather: BR  (mist)

METAR text: ETNH 190520Z 21003KT 0300 FZFG VV000 M00/M01 Q1018 RED
Conditions at: ETNH (HOHN (GER-AFB) , DE) observed 0520 UTC 19 January 2019
Temperature: 0.0°C (32°F)
Dewpoint: -1.0°C (30°F) [RH = 93%]
Pressure (altimeter): 30.06 inches Hg (1018.0 mb)
Winds: from the SSW (210 degrees) at 3 MPH (3 knots; 1.5 m/s)
Visibility: 0.19 miles (0.31 km)
Ceiling: indefinite ceiling with vertical visibility of 0 feet AGL
Clouds: obscured sky
Weather: FZFG  (freezing fog)

METAR text: ETNH 190420Z AUTO 19004KT 0150 // ////// M00/M01 Q1018 ///
Conditions at: ETNH (HOHN (GER-AFB) , DE) observed 0420 UTC 19 January 2019
Temperature: 0.0°C (32°F)
Dewpoint: -1.0°C (30°F) [RH = 93%]
Pressure (altimeter): 30.06 inches Hg (1018.0 mb)
Winds: from the S (190 degrees) at 5 MPH (4 knots; 2.1 m/s)
Visibility: 0.09 miles (0.14 km)
Ceiling: unknown
Clouds: missing
Weather: no significant weather observed at this time

METAR text: ETNH 190320Z AUTO VRB02KT 0250 // ////// M02/M02 Q1018 ///
Conditions at: ETNH (HOHN (GER-AFB) , DE) observed 0320 UTC 19 January 2019
Temperature: -2.0°C (28°F)
Dewpoint: -2.0°C (28°F) [RH = 100%]
Pressure (altimeter): 30.06 inches Hg (1018.0 mb)
Winds: variable direction winds at 2 MPH (2 knots; 1.0 m/s)
Visibility: 0.16 miles (0.26 km)
Ceiling: unknown
Clouds: missing
Weather: no significant weather observed at this time

METAR text: ETNH 190220Z AUTO 19003KT 0350 // ////// M02/M03 Q1018 ///
Conditions at: ETNH (HOHN (GER-AFB) , DE) observed 0220 UTC 19 January 2019
Temperature: -2.0°C (28°F)
Dewpoint: -3.0°C (27°F) [RH = 93%]
Pressure (altimeter): 30.06 inches Hg (1018.0 mb)
Winds: from the S (190 degrees) at 3 MPH (3 knots; 1.5 m/s)
Visibility: 0.22 miles (0.35 km)
Ceiling: unknown
Clouds: missing
Weather: no significant weather observed at this time

METAR text: ETNH 190120Z AUTO 19003KT 3300 // ////// M03/M03 Q1019 ///
Conditions at: ETNH (HOHN (GER-AFB) , DE) observed 0120 UTC 19 January 2019
Temperature: -3.0°C (27°F)
Dewpoint: -3.0°C (27°F) [RH = 100%]
Pressure (altimeter): 30.09 inches Hg (1019.0 mb)
Winds: from the S (190 degrees) at 3 MPH (3 knots; 1.5 m/s)
Visibility: 2.05 miles (3.30 km)
Ceiling: unknown
Clouds: missing
Weather: no significant weather observed at this time

METAR text: ETNH 190020Z AUTO 20002KT 1400 // ////// M02/M02 Q1018 ///
Conditions at: ETNH (HOHN (GER-AFB) , DE) observed 0020 UTC 19 January 2019
Temperature: -2.0°C (28°F)
Dewpoint: -2.0°C (28°F) [RH = 100%]
Pressure (altimeter): 30.06 inches Hg (1018.0 mb)
Winds: from the SSW (200 degrees) at 2 MPH (2 knots; 1.0 m/s)
Visibility: 0.87 miles (1.40 km)
Ceiling: unknown
Clouds: missing
Weather: no significant weather observed at this time

METAR text: ETNH 182320Z AUTO 21003KT 2200 // ////// M01/M01 Q1018 ///
Conditions at: ETNH (HOHN (GER-AFB) , DE) observed 2320 UTC 18 January 2019
Temperature: -1.0°C (30°F)
Dewpoint: -1.0°C (30°F) [RH = 100%]
Pressure (altimeter): 30.06 inches Hg (1018.0 mb)
Winds: from the SSW (210 degrees) at 3 MPH (3 knots; 1.5 m/s)
Visibility: 1.37 miles (2.20 km)
Ceiling: unknown
Clouds: missing
Weather: no significant weather observed at this time

METAR text: ETNH 182220Z AUTO 21007KT 0100 // ////// M00/M01 Q1018 ///
Conditions at: ETNH (HOHN (GER-AFB) , DE) observed 2220 UTC 18 January 2019
Temperature: 0.0°C (32°F)
Dewpoint: -1.0°C (30°F) [RH = 93%]
Pressure (altimeter): 30.06 inches Hg (1018.0 mb)
Winds: from the SSW (210 degrees) at 8 MPH (7 knots; 3.6 m/s)
Visibility: 0.06 miles (0.10 km)
Ceiling: unknown
Clouds: missing
Weather: no significant weather observed at this time

METAR text: ETNH 182120Z 21004KT 0400 FZFG BKN150 M01/M01 Q1018 RED
Conditions at: ETNH (HOHN (GER-AFB) , DE) observed 2120 UTC 18 January 2019
Temperature: -1.0°C (30°F)
Dewpoint: -1.0°C (30°F) [RH = 100%]
Pressure (altimeter): 30.06 inches Hg (1018.0 mb)
Winds: from the SSW (210 degrees) at 5 MPH (4 knots; 2.1 m/s)
Visibility: 0.25 miles (0.40 km)
Ceiling: 15000 feet AGL
Clouds: broken clouds at 15000 feet AGL
Weather: FZFG  (freezing fog)

METAR text: ETNH 182043Z 21003KT 0050 FZFG BKN150 M01/M01 Q1018 RED
Conditions at: ETNH (HOHN (GER-AFB) , DE) observed 2043 UTC 18 January 2019
Temperature: -1.0°C (30°F)
Dewpoint: -1.0°C (30°F) [RH = 100%]
Pressure (altimeter): 30.06 inches Hg (1018.0 mb)
Winds: from the SSW (210 degrees) at 3 MPH (3 knots; 1.5 m/s)
Visibility: 0.03 miles (0.05 km)
Ceiling: 15000 feet AGL
Clouds: broken clouds at 15000 feet AGL
Weather: FZFG  (freezing fog)

METAR text: ETNH 182034Z 20005KT 2500 BR BKN150 M01/M01 Q1018 YLO
Conditions at: ETNH (HOHN (GER-AFB) , DE) observed 2034 UTC 18 January 2019
Temperature: -1.0°C (30°F)
Dewpoint: -1.0°C (30°F) [RH = 100%]
Pressure (altimeter): 30.06 inches Hg (1018.0 mb)
Winds: from the SSW (200 degrees) at 6 MPH (5 knots; 2.6 m/s)
Visibility: 1.55 miles (2.49 km)
Ceiling: 15000 feet AGL
Clouds: broken clouds at 15000 feet AGL
Weather: BR  (mist)

METAR text: ETNH 182020Z 20006KT 9999 BKN150 M01/M02 Q1018 BLU
Conditions at: ETNH (HOHN (GER-AFB) , DE) observed 2020 UTC 18 January 2019
Temperature: -1.0°C (30°F)
Dewpoint: -2.0°C (28°F) [RH = 93%]
Pressure (altimeter): 30.06 inches Hg (1018.0 mb)
Winds: from the SSW (200 degrees) at 7 MPH (6 knots; 3.1 m/s)
Visibility: 6 or more miles (10+ km)
Ceiling: 15000 feet AGL
Clouds: broken clouds at 15000 feet AGL
Weather: no significant weather observed at this time

METAR text: ETNH 181920Z 21005KT 9999 FEW012 BKN140 M01/M02 Q1018 BLU
Conditions at: ETNH (HOHN (GER-AFB) , DE) observed 1920 UTC 18 January 2019
Temperature: -1.0°C (30°F)
Dewpoint: -2.0°C (28°F) [RH = 93%]
Pressure (altimeter): 30.06 inches Hg (1018.0 mb)
Winds: from the SSW (210 degrees) at 6 MPH (5 knots; 2.6 m/s)
Visibility: 6 or more miles (10+ km)
Ceiling: 14000 feet AGL
Clouds: few clouds at 1200 feet AGL
broken clouds at 14000 feet AGL
Weather: no significant weather observed at this time

METAR text: ETNH 181820Z 23003KT 9999 BKN170 M00/M01 Q1017 BLU
Conditions at: ETNH (HOHN (GER-AFB) , DE) observed 1820 UTC 18 January 2019
Temperature: 0.0°C (32°F)
Dewpoint: -1.0°C (30°F) [RH = 93%]
Pressure (altimeter): 30.03 inches Hg (1017.0 mb)
Winds: from the SW (230 degrees) at 3 MPH (3 knots; 1.5 m/s)
Visibility: 6 or more miles (10+ km)
Ceiling: 17000 feet AGL
Clouds: broken clouds at 17000 feet AGL
Weather: no significant weather observed at this time

METAR text: ETNH 181720Z 25003KT 9999 SCT190 00/M01 Q1017 BLU+
Conditions at: ETNH (HOHN (GER-AFB) , DE) observed 1720 UTC 18 January 2019
Temperature: 0.0°C (32°F)
Dewpoint: -1.0°C (30°F) [RH = 93%]
Pressure (altimeter): 30.03 inches Hg (1017.0 mb)
Winds: from the WSW (250 degrees) at 3 MPH (3 knots; 1.5 m/s)
Visibility: 6 or more miles (10+ km)
Ceiling: at least 12,000 feet AGL
Clouds: scattered clouds at 19000 feet AGL
Weather: no significant weather observed at this time

METAR text: ETNH 181620Z 23004KT 9999 SCT210 00/M01 Q1017 BLU+
Conditions at: ETNH (HOHN (GER-AFB) , DE) observed 1620 UTC 18 January 2019
Temperature: 0.0°C (32°F)
Dewpoint: -1.0°C (30°F) [RH = 93%]
Pressure (altimeter): 30.03 inches Hg (1017.0 mb)
Winds: from the SW (230 degrees) at 5 MPH (4 knots; 2.1 m/s)
Visibility: 6 or more miles (10+ km)
Ceiling: at least 12,000 feet AGL
Clouds: scattered clouds at 21000 feet AGL
Weather: no significant weather observed at this time

METAR text: ETNH 181520Z 24004KT 9999 FEW040 SCT280 01/M01 Q1017 BLU+
Conditions at: ETNH (HOHN (GER-AFB) , DE) observed 1520 UTC 18 January 2019
Temperature: 1.0°C (34°F)
Dewpoint: -1.0°C (30°F) [RH = 86%]
Pressure (altimeter): 30.03 inches Hg (1017.0 mb)
Winds: from the WSW (240 degrees) at 5 MPH (4 knots; 2.1 m/s)
Visibility: 6 or more miles (10+ km)
Ceiling: at least 12,000 feet AGL
Clouds: few clouds at 4000 feet AGL
scattered clouds at 28000 feet AGL
Weather: no significant weather observed at this time

METAR text: ETNH 181420Z 27007KT 9999 FEW100 03/M00 Q1016 BLU+
Conditions at: ETNH (HOHN (GER-AFB) , DE) observed 1420 UTC 18 January 2019
Temperature: 3.0°C (37°F)
Dewpoint: 0.0°C (32°F) [RH = 81%]
Pressure (altimeter): 30.00 inches Hg (1016.0 mb)
Winds: from the W (270 degrees) at 8 MPH (7 knots; 3.6 m/s)
Visibility: 6 or more miles (10+ km)
Ceiling: at least 12,000 feet AGL
Clouds: few clouds at 10000 feet AGL
Weather: no significant weather observed at this time

METAR text: ETNH 181320Z 27007KT 9999 FEW040 03/M00 Q1016 BLU+
Conditions at: ETNH (HOHN (GER-AFB) , DE) observed 1320 UTC 18 January 2019
Temperature: 3.0°C (37°F)
Dewpoint: 0.0°C (32°F) [RH = 81%]
Pressure (altimeter): 30.00 inches Hg (1016.0 mb)
Winds: from the W (270 degrees) at 8 MPH (7 knots; 3.6 m/s)
Visibility: 6 or more miles (10+ km)
Ceiling: at least 12,000 feet AGL
Clouds: few clouds at 4000 feet AGL
Weather: no significant weather observed at this time

METAR text: ETNH 181220Z 26007KT 9999 FEW040 03/M00 Q1016 BLU+FCST CANCEL
Conditions at: ETNH (HOHN (GER-AFB) , DE) observed 1220 UTC 18 January 2019
Temperature: 3.0°C (37°F)
Dewpoint: 0.0°C (32°F) [RH = 81%]
Pressure (altimeter): 30.00 inches Hg (1016.0 mb)
Winds: from the W (260 degrees) at 8 MPH (7 knots; 3.6 m/s)
Visibility: 6 or more miles (10+ km)
Ceiling: at least 12,000 feet AGL
Clouds: few clouds at 4000 feet AGL
Weather: no significant weather observed at this time

METAR text: ETNH 181120Z 26006KT 9999 FEW015 02/M01 Q1016 BLU+BLU+
Conditions at: ETNH (HOHN (GER-AFB) , DE) observed 1120 UTC 18 January 2019
Temperature: 2.0°C (36°F)
Dewpoint: -1.0°C (30°F) [RH = 80%]
Pressure (altimeter): 30.00 inches Hg (1016.0 mb)
Winds: from the W (260 degrees) at 7 MPH (6 knots; 3.1 m/s)
Visibility: 6 or more miles (10+ km)
Ceiling: at least 12,000 feet AGL
Clouds: few clouds at 1500 feet AGL
Weather: no significant weather observed at this time

METAR text: ETNH 181020Z 26006KT 9999 FEW015TCU 01/M02 Q1015 BLU+BLU+
Conditions at: ETNH (HOHN (GER-AFB) , DE) observed 1020 UTC 18 January 2019
Temperature: 1.0°C (34°F)
Dewpoint: -2.0°C (28°F) [RH = 80%]
Pressure (altimeter): 29.97 inches Hg (1015.0 mb)
Winds: from the W (260 degrees) at 7 MPH (6 knots; 3.1 m/s)
Visibility: 6 or more miles (10+ km)
Ceiling: at least 12,000 feet AGL
Clouds: few clouds at 1500 feet AGL
Weather: no significant weather observed at this time

METAR text: ETNH 180920Z 23004KT 9999 FEW015CB M00/M02 Q1015 BLU+BLU+
Conditions at: ETNH (HOHN (GER-AFB) , DE) observed 0920 UTC 18 January 2019
Temperature: 0.0°C (32°F)
Dewpoint: -2.0°C (28°F) [RH = 86%]
Pressure (altimeter): 29.97 inches Hg (1015.0 mb)
Winds: from the SW (230 degrees) at 5 MPH (4 knots; 2.1 m/s)
Visibility: 6 or more miles (10+ km)
Ceiling: at least 12,000 feet AGL
Clouds: few clouds at 1500 feet AGL
Weather: no significant weather observed at this time

METAR text: ETNH 180820Z 22004KT 9999 FEW015CB M02/M05 Q1014 BLU+BLU+
Conditions at: ETNH (HOHN (GER-AFB) , DE) observed 0820 UTC 18 January 2019
Temperature: -2.0°C (28°F)
Dewpoint: -5.0°C (23°F) [RH = 80%]
Pressure (altimeter): 29.94 inches Hg (1014.0 mb)
Winds: from the SW (220 degrees) at 5 MPH (4 knots; 2.1 m/s)
Visibility: 6 or more miles (10+ km)
Ceiling: at least 12,000 feet AGL
Clouds: few clouds at 1500 feet AGL
Weather: no significant weather observed at this time

METAR text: ETNH 180720Z 22006KT 9999 FEW035 M03/M07 Q1014 BLU+BLU+
Conditions at: ETNH (HOHN (GER-AFB) , DE) observed 0720 UTC 18 January 2019
Temperature: -3.0°C (27°F)
Dewpoint: -7.0°C (19°F) [RH = 74%]
Pressure (altimeter): 29.94 inches Hg (1014.0 mb)
Winds: from the SW (220 degrees) at 7 MPH (6 knots; 3.1 m/s)
Visibility: 6 or more miles (10+ km)
Ceiling: at least 12,000 feet AGL
Clouds: few clouds at 3500 feet AGL
Weather: no significant weather observed at this time

METAR text: ETNH 180620Z 20004KT 9999 SCT035 M03/M07 Q1013 BLU+BLU+
Conditions at: ETNH (HOHN (GER-AFB) , DE) observed 0620 UTC 18 January 2019
Temperature: -3.0°C (27°F)
Dewpoint: -7.0°C (19°F) [RH = 74%]
Pressure (altimeter): 29.91 inches Hg (1013.0 mb)
Winds: from the SSW (200 degrees) at 5 MPH (4 knots; 2.1 m/s)
Visibility: 6 or more miles (10+ km)
Ceiling: at least 12,000 feet AGL
Clouds: scattered clouds at 3500 feet AGL
Weather: no significant weather observed at this time

METAR text: ETNH 180520Z 20002KT 9999 FEW035 M05/M07 Q1013 BLU+BLU+
Conditions at: ETNH (HOHN (GER-AFB) , DE) observed 0520 UTC 18 January 2019
Temperature: -5.0°C (23°F)
Dewpoint: -7.0°C (19°F) [RH = 86%]
Pressure (altimeter): 29.91 inches Hg (1013.0 mb)
Winds: from the SSW (200 degrees) at 2 MPH (2 knots; 1.0 m/s)
Visibility: 6 or more miles (10+ km)
Ceiling: at least 12,000 feet AGL
Clouds: few clouds at 3500 feet AGL
Weather: no significant weather observed at this time

METAR text: ETNH 180420Z VRB01KT 9999 M05/M07 Q1013 BLU+BLU+
Conditions at: ETNH (HOHN (GER-AFB) , DE) observed 0420 UTC 18 January 2019
Temperature: -5.0°C (23°F)
Dewpoint: -7.0°C (19°F) [RH = 86%]
Pressure (altimeter): 29.91 inches Hg (1013.0 mb)
Winds: variable direction winds at 1 MPH (1 knots; 0.5 m/s)
Visibility: 6 or more miles (10+ km)
Ceiling: unknown
Clouds: missing
Weather: no significant weather observed at this time

METAR text: ETNH 180351Z 23001KT 9999 M04/M06 Q1012 BLU+
Conditions at: ETNH (HOHN (GER-AFB) , DE) observed 0351 UTC 18 January 2019
Temperature: -4.0°C (25°F)
Dewpoint: -6.0°C (21°F) [RH = 86%]
Pressure (altimeter): 29.88 inches Hg (1012.0 mb)
Winds: from the SW (230 degrees) at 1 MPH (1 knots; 0.5 m/s)
Visibility: 6 or more miles (10+ km)
Ceiling: unknown
Clouds: missing
Weather: no significant weather observed at this time

METAR text: ETNH 180320Z AUTO 26005KT 7000 // ////// M05/M07 Q1012 ///
Conditions at: ETNH (HOHN (GER-AFB) , DE) observed 0320 UTC 18 January 2019
Temperature: -5.0°C (23°F)
Dewpoint: -7.0°C (19°F) [RH = 86%]
Pressure (altimeter): 29.88 inches Hg (1012.0 mb)
Winds: from the W (260 degrees) at 6 MPH (5 knots; 2.6 m/s)
Visibility: 4 miles ( 7 km)
Ceiling: unknown
Clouds: missing
Weather: no significant weather observed at this time

METAR text: ETNH 180220Z AUTO 29005KT 7000 // ////// M04/M06 Q1011 ///
Conditions at: ETNH (HOHN (GER-AFB) , DE) observed 0220 UTC 18 January 2019
Temperature: -4.0°C (25°F)
Dewpoint: -6.0°C (21°F) [RH = 86%]
Pressure (altimeter): 29.85 inches Hg (1011.0 mb)
Winds: from the WNW (290 degrees) at 6 MPH (5 knots; 2.6 m/s)
Visibility: 4 miles ( 7 km)
Ceiling: unknown
Clouds: missing
Weather: no significant weather observed at this time

METAR text: ETNH 180120Z AUTO 30007KT 7000 // ////// M03/M05 Q1010 ///
Conditions at: ETNH (HOHN (GER-AFB) , DE) observed 0120 UTC 18 January 2019
Temperature: -3.0°C (27°F)
Dewpoint: -5.0°C (23°F) [RH = 86%]
Pressure (altimeter): 29.82 inches Hg (1010.0 mb)
Winds: from the WNW (300 degrees) at 8 MPH (7 knots; 3.6 m/s)
Visibility: 4 miles ( 7 km)
Ceiling: unknown
Clouds: missing
Weather: no significant weather observed at this time

METAR text: ETNH 180020Z AUTO 27006KT 7000 // ////// M05/M06 Q1009 ///
Conditions at: ETNH (HOHN (GER-AFB) , DE) observed 0020 UTC 18 January 2019
Temperature: -5.0°C (23°F)
Dewpoint: -6.0°C (21°F) [RH = 93%]
Pressure (altimeter): 29.79 inches Hg (1009.0 mb)
Winds: from the W (270 degrees) at 7 MPH (6 knots; 3.1 m/s)
Visibility: 4 miles ( 7 km)
Ceiling: unknown
Clouds: missing
Weather: no significant weather observed at this time

Forecast for: ETNH (HOHN (GER-AFB) , DE)
Text: TAF ETNH 191110Z 1912/1924 16005KT 8000 NSW SCT140
Forecast period: 1200 to 1700 UTC 19 January 2019
Forecast type: FROM: standard forecast or significant change
Winds: from the SSE (160 degrees) at 6 MPH (5 knots; 2.6 m/s)
Visibility: 5 miles (8 km)
Ceiling: at least 12,000 feet AGL
Clouds: scattered clouds at 14000 feet AGL
Weather: NSW  (no significant weather)
Text: BECMG 1917/1919 15003KT 5000 BR FEW015 SCT160
Forecast period: 1700 to 1900 UTC 19 January 2019
Forecast type: BECOMING: Conditions expected to become as follows by 1900 UTC 19 January 2019
Winds: from the SSE (150 degrees) at 3 MPH (3 knots; 1.5 m/s)
Visibility: 3 miles (5 km)
Ceiling: at least 12,000 feet AGL
Clouds: few clouds at 1500 feet AGL
scattered clouds at 16000 feet AGL
Weather: BR  (mist)
Text: BECMG 1919/1921 VRB03KT 4000 BR SCT012 BY ETGL
Forecast period: 1900 UTC 19 January 2019 to 0000 UTC 20 January 2019
Forecast type: BECOMING: Conditions expected to become as follows by 2100 UTC 19 January 2019
Winds: variable direction winds at 3 MPH (3 knots; 1.5 m/s)
Visibility: 2.49 miles (4.01 km)
Ceiling: at least 12,000 feet AGL
Clouds: scattered clouds at 1200 feet AGL
Weather: BR  (mist)